createdAt,value
2023-05-12T00:00:23.579Z,4.67
2023-05-12T00:01:23.662Z,4.65
2023-05-12T00:02:23.759Z,4.55
2023-05-12T00:03:23.841Z,4.64
2023-05-12T00:04:23.898Z,4.60
2023-05-12T00:05:23.863Z,4.61
2023-05-12T00:06:23.891Z,4.57
2023-05-12T00:07:23.903Z,4.49
2023-05-12T00:08:23.930Z,4.58
2023-05-12T00:09:23.945Z,4.51
2023-05-12T00:10:23.970Z,4.52
2023-05-12T00:11:23.936Z,4.50
2023-05-12T00:12:23.978Z,4.42
2023-05-12T00:13:24.005Z,4.51
2023-05-12T00:14:23.996Z,4.45
2023-05-12T00:15:23.997Z,4.53
2023-05-12T00:16:24.072Z,4.58
2023-05-12T00:17:24.090Z,4.47
2023-05-12T00:18:24.154Z,4.51
2023-05-12T00:19:24.177Z,4.37
2023-05-12T00:20:24.228Z,4.39
2023-05-12T00:21:24.310Z,4.39
2023-05-12T00:22:24.371Z,4.36
2023-05-12T00:23:24.398Z,4.33
2023-05-12T00:24:24.487Z,4.37
2023-05-12T00:25:24.550Z,4.30
2023-05-12T00:26:24.593Z,4.36
2023-05-12T00:27:24.644Z,4.33
2023-05-12T00:28:24.714Z,4.34
2023-05-12T00:29:24.776Z,4.34
2023-05-12T00:30:24.814Z,4.36
2023-05-12T00:31:24.951Z,4.33
2023-05-12T00:32:24.955Z,4.31
2023-05-12T00:33:25.029Z,4.27
2023-05-12T00:34:25.081Z,4.25
2023-05-12T00:35:25.139Z,4.32
2023-05-12T00:36:25.193Z,4.26
2023-05-12T00:37:25.253Z,4.24
2023-05-12T00:38:25.338Z,4.19
2023-05-12T00:39:25.406Z,4.21
2023-05-12T00:40:25.459Z,4.26
2023-05-12T00:41:25.488Z,4.18
2023-05-12T00:42:25.564Z,4.10
2023-05-12T00:43:25.634Z,4.15
2023-05-12T00:44:25.681Z,4.13
2023-05-12T00:45:25.736Z,4.01
2023-05-12T00:46:25.867Z,4.04
2023-05-12T00:47:25.910Z,4.13
2023-05-12T00:48:25.934Z,4.09
2023-05-12T00:49:26.024Z,4.07
2023-05-12T00:50:26.038Z,4.00
2023-05-12T00:51:26.124Z,4.04
2023-05-12T00:52:26.202Z,4.04
2023-05-12T00:53:32.592Z,4.06
2023-05-12T00:54:27.240Z,4.07
2023-05-12T00:55:26.211Z,4.07
2023-05-12T00:56:26.251Z,4.09
2023-05-12T00:57:26.236Z,4.10
2023-05-12T00:58:26.195Z,4.08
2023-05-12T00:59:26.209Z,3.98
2023-05-12T01:00:26.210Z,4.02
2023-05-12T01:01:26.237Z,3.97
2023-05-12T01:02:26.232Z,3.97
2023-05-12T01:03:26.344Z,3.93
2023-05-12T01:04:26.262Z,4.02
2023-05-12T01:05:26.257Z,3.94
2023-05-12T01:06:26.256Z,3.97
2023-05-12T01:07:26.294Z,3.97
2023-05-12T01:08:26.330Z,3.88
2023-05-12T01:09:26.404Z,3.94
2023-05-12T01:10:26.425Z,3.90
2023-05-12T01:11:26.508Z,3.88
2023-05-12T01:12:26.574Z,3.89
2023-05-12T01:13:26.637Z,3.84
2023-05-12T01:14:26.714Z,3.92
2023-05-12T01:15:26.772Z,3.82
2023-05-12T01:16:26.836Z,3.79
2023-05-12T01:17:26.948Z,3.81
2023-05-12T01:18:27.040Z,3.82
2023-05-12T01:19:26.997Z,3.71
2023-05-12T01:20:27.056Z,3.75
2023-05-12T01:21:27.094Z,3.71
2023-05-12T01:22:27.158Z,3.66
2023-05-12T01:23:27.217Z,3.72
2023-05-12T01:24:27.275Z,3.71
2023-05-12T01:25:27.339Z,3.72
2023-05-12T01:26:27.414Z,3.61
2023-05-12T01:27:27.443Z,3.64
2023-05-12T01:28:27.515Z,3.64
2023-05-12T01:29:27.561Z,3.66
2023-05-12T01:30:27.634Z,3.62
2023-05-12T01:31:27.713Z,3.63
2023-05-12T01:32:27.771Z,3.63
2023-05-12T01:33:27.818Z,3.64
2023-05-12T01:34:27.863Z,3.68
2023-05-12T01:35:27.929Z,3.60
2023-05-12T01:36:27.949Z,3.68
2023-05-12T01:37:28.035Z,3.62
2023-05-12T01:38:28.085Z,3.62
2023-05-12T01:39:28.167Z,3.60
2023-05-12T01:40:28.229Z,3.66
2023-05-12T01:41:28.351Z,3.60
2023-05-12T01:42:28.333Z,3.55
2023-05-12T01:43:28.398Z,3.59
2023-05-12T01:44:28.466Z,3.56
2023-05-12T01:45:28.519Z,3.53
2023-05-12T01:46:28.580Z,3.50
2023-05-12T01:47:28.646Z,3.48
2023-05-12T01:48:28.674Z,3.44
2023-05-12T01:49:28.716Z,3.48
2023-05-12T01:50:28.766Z,3.49
2023-05-12T01:51:28.788Z,3.44
2023-05-12T01:52:28.836Z,3.43
2023-05-12T01:53:28.898Z,3.42
2023-05-12T01:54:28.934Z,3.46
2023-05-12T01:55:29.008Z,3.49
2023-05-12T01:56:29.039Z,3.38
2023-05-12T01:57:29.106Z,3.39
2023-05-12T01:58:29.164Z,3.42
2023-05-12T01:59:29.221Z,3.41
2023-05-12T02:00:29.301Z,3.45
2023-05-12T02:01:29.410Z,3.42
2023-05-12T02:02:29.467Z,3.34
2023-05-12T02:03:29.474Z,3.37
2023-05-12T02:04:29.422Z,3.36
2023-05-12T02:05:29.442Z,3.36
2023-05-12T02:06:29.519Z,3.35
2023-05-12T02:07:29.599Z,3.31
2023-05-12T02:08:29.593Z,3.28
2023-05-12T02:09:29.608Z,3.28
2023-05-12T02:10:29.678Z,3.20
2023-05-12T02:11:29.715Z,3.20
2023-05-12T02:12:29.762Z,3.22
2023-05-12T02:13:29.799Z,3.14
2023-05-12T02:14:29.851Z,3.16
2023-05-12T02:15:29.897Z,3.17
2023-05-12T02:16:29.978Z,3.19
2023-05-12T02:17:30.046Z,3.17
2023-05-12T02:18:30.174Z,3.09
2023-05-12T02:19:30.075Z,3.10
2023-05-12T02:20:30.134Z,3.21
2023-05-12T02:21:30.171Z,3.22
2023-05-12T02:22:30.165Z,3.18
2023-05-12T02:23:30.217Z,3.16
2023-05-12T02:24:30.273Z,3.20
2023-05-12T02:25:30.266Z,3.17
2023-05-12T02:26:30.322Z,3.11
2023-05-12T02:27:30.382Z,3.13
2023-05-12T02:28:30.394Z,3.17
2023-05-12T02:29:30.406Z,3.10
2023-05-12T02:30:30.494Z,3.13
2023-05-12T02:31:30.537Z,3.11
2023-05-12T02:32:30.571Z,3.07
2023-05-12T02:33:30.608Z,3.18
2023-05-12T02:34:30.660Z,3.07
2023-05-12T02:35:30.643Z,3.07
2023-05-12T02:36:30.683Z,3.02
2023-05-12T02:37:30.687Z,3.06
2023-05-12T02:38:30.695Z,3.01
2023-05-12T02:39:30.699Z,3.03
2023-05-12T02:40:30.721Z,3.01
2023-05-12T02:41:30.730Z,3.10
2023-05-12T02:42:30.727Z,3.07
2023-05-12T02:43:30.711Z,3.05
2023-05-12T02:44:30.773Z,2.99
2023-05-12T02:45:30.807Z,3.01
2023-05-12T02:46:30.766Z,2.87
2023-05-12T02:47:30.822Z,2.97
2023-05-12T02:48:30.802Z,3.00
2023-05-12T02:49:30.789Z,2.96
2023-05-12T02:50:30.793Z,2.96
2023-05-12T02:51:30.818Z,2.95
2023-05-12T02:52:30.819Z,2.99
2023-05-12T02:53:30.854Z,2.93
2023-05-12T02:54:30.832Z,2.92
2023-05-12T02:55:30.885Z,3.01
2023-05-12T02:56:33.829Z,2.98
2023-05-12T02:57:30.824Z,3.01
2023-05-12T02:58:30.850Z,2.99
2023-05-12T02:59:30.845Z,2.98
2023-05-12T03:00:30.811Z,2.91
2023-05-12T03:01:30.871Z,2.90
2023-05-12T03:02:30.856Z,2.90
2023-05-12T03:03:30.939Z,2.88
2023-05-12T03:04:30.838Z,2.81
2023-05-12T03:05:30.811Z,2.88
2023-05-12T03:06:30.790Z,2.84
2023-05-12T03:07:30.810Z,2.83
2023-05-12T03:08:30.792Z,2.78
2023-05-12T03:09:30.756Z,2.82
2023-05-12T03:10:30.779Z,2.83
2023-05-12T03:11:30.744Z,2.91
2023-05-12T03:12:30.751Z,2.77
2023-05-12T03:13:30.756Z,2.82
2023-05-12T03:14:30.769Z,2.86
2023-05-12T03:15:30.736Z,2.78
2023-05-12T03:16:30.750Z,2.86
2023-05-12T03:17:30.719Z,2.82
2023-05-12T03:18:30.783Z,2.82
2023-05-12T03:19:30.693Z,2.83
2023-05-12T03:20:30.713Z,2.77
2023-05-12T03:21:30.683Z,2.75
2023-05-12T03:22:30.661Z,2.75
2023-05-12T03:23:30.665Z,2.70
2023-05-12T03:24:30.683Z,2.69
2023-05-12T03:25:30.672Z,2.74
2023-05-12T03:26:30.659Z,2.70
2023-05-12T03:27:30.653Z,2.74
2023-05-12T03:28:30.727Z,2.74
2023-05-12T03:29:30.637Z,2.73
2023-05-12T03:30:30.639Z,2.68
2023-05-12T03:31:30.687Z,2.63
2023-05-12T03:32:30.641Z,2.69
2023-05-12T03:33:30.607Z,2.73
2023-05-12T03:34:30.590Z,2.60
2023-05-12T03:35:30.599Z,2.69
2023-05-12T03:36:30.604Z,2.65
2023-05-12T03:37:30.568Z,2.67
2023-05-12T03:38:30.538Z,2.61
2023-05-12T03:39:30.570Z,2.69
2023-05-12T03:40:30.557Z,2.64
2023-05-12T03:41:30.549Z,2.67
2023-05-12T03:42:30.534Z,2.68
2023-05-12T03:43:30.514Z,2.65
2023-05-12T03:44:30.529Z,2.58
2023-05-12T03:45:30.508Z,2.60
2023-05-12T03:46:30.547Z,2.61
2023-05-12T03:47:30.561Z,2.60
2023-05-12T03:48:30.617Z,2.62
2023-05-12T03:49:30.478Z,2.62
2023-05-12T03:50:30.454Z,2.63
2023-05-12T03:51:30.493Z,2.58
2023-05-12T03:52:30.454Z,2.56
2023-05-12T03:53:30.440Z,2.54
2023-05-12T03:54:30.432Z,2.55
2023-05-12T03:55:30.442Z,2.56
2023-05-12T03:56:30.449Z,2.49
2023-05-12T03:57:30.422Z,2.52
2023-05-12T03:58:30.419Z,2.53
2023-05-12T03:59:30.394Z,2.55
2023-05-12T04:00:30.387Z,2.53
2023-05-12T04:01:30.426Z,2.55
2023-05-12T04:02:30.448Z,2.52
2023-05-12T04:03:30.459Z,2.50
2023-05-12T04:04:30.439Z,2.51
2023-05-12T04:05:30.440Z,2.53
2023-05-12T04:06:30.449Z,2.48
2023-05-12T04:07:30.462Z,2.43
2023-05-12T04:08:30.496Z,2.36
2023-05-12T04:09:30.475Z,2.47
2023-05-12T04:10:30.536Z,2.44
2023-05-12T04:11:30.533Z,2.50
2023-05-12T04:12:30.563Z,2.42
2023-05-12T04:13:30.553Z,2.43
2023-05-12T04:14:41.690Z,2.48
2023-05-12T04:15:31.585Z,2.49
2023-05-12T04:16:30.579Z,2.50
2023-05-12T04:17:30.582Z,2.51
2023-05-12T04:18:30.630Z,2.48
2023-05-12T04:19:30.534Z,2.46
2023-05-12T04:20:30.552Z,2.50
2023-05-12T04:21:30.542Z,2.48
2023-05-12T04:22:30.522Z,2.44
2023-05-12T04:23:30.511Z,2.43
2023-05-12T04:24:30.490Z,2.44
2023-05-12T04:25:30.538Z,2.39
2023-05-12T04:26:30.485Z,2.43
2023-05-12T04:27:30.481Z,2.41
2023-05-12T04:28:30.486Z,2.40
2023-05-12T04:29:30.460Z,2.37
2023-05-12T04:30:30.475Z,2.40
2023-05-12T04:31:30.453Z,2.38
2023-05-12T04:32:30.472Z,2.33
2023-05-12T04:33:30.435Z,2.43
2023-05-12T04:34:30.440Z,2.40
2023-05-12T04:35:30.418Z,2.35
2023-05-12T04:36:30.409Z,2.35
2023-05-12T04:37:30.434Z,2.37
2023-05-12T04:38:30.451Z,2.38
2023-05-12T04:39:30.414Z,2.37
2023-05-12T04:40:32.026Z,2.36
2023-05-12T04:41:30.425Z,2.38
2023-05-12T04:42:30.386Z,2.36
2023-05-12T04:44:30.403Z,2.36
2023-05-12T04:45:30.394Z,2.36
2023-05-12T04:46:30.393Z,2.33
2023-05-12T04:47:30.372Z,2.35
2023-05-12T04:48:30.332Z,2.38
2023-05-12T04:49:30.360Z,2.33
2023-05-12T04:50:30.340Z,2.33
2023-05-12T04:51:30.369Z,2.35
2023-05-12T04:52:30.311Z,2.32
2023-05-12T04:53:30.327Z,2.33
2023-05-12T04:54:30.320Z,2.30
2023-05-12T04:55:30.333Z,2.31
2023-05-12T04:56:30.313Z,2.27
2023-05-12T04:57:30.373Z,2.25
2023-05-12T04:58:30.305Z,2.23
2023-05-12T04:59:30.272Z,2.24
2023-05-12T05:00:37.279Z,2.20
2023-05-12T05:01:30.405Z,2.21
2023-05-12T05:02:30.398Z,2.22
2023-05-12T05:03:30.337Z,2.22
2023-05-12T05:04:30.279Z,2.22
2023-05-12T05:05:30.244Z,2.23
2023-05-12T05:06:30.269Z,2.23
2023-05-12T05:07:30.243Z,2.17
2023-05-12T05:08:30.216Z,2.14
2023-05-12T05:09:30.234Z,2.12
2023-05-12T05:10:30.227Z,2.08
2023-05-12T05:11:30.210Z,2.09
2023-05-12T05:12:30.162Z,2.04
2023-05-12T05:13:30.205Z,2.05
2023-05-12T05:14:30.173Z,2.03
2023-05-12T05:15:30.180Z,2.06
2023-05-12T05:16:30.210Z,1.99
2023-05-12T05:17:30.172Z,1.97
2023-05-12T05:18:30.183Z,1.99
2023-05-12T05:19:44.722Z,1.95
2023-05-12T05:20:32.395Z,1.95
2023-05-12T05:21:30.147Z,1.96
2023-05-12T05:22:30.178Z,1.92
2023-05-12T05:23:30.226Z,1.95
2023-05-12T05:24:30.278Z,2.08
2023-05-12T05:25:30.301Z,2.41
2023-05-12T05:26:30.299Z,2.59
2023-05-12T05:27:30.306Z,2.76
2023-05-12T05:28:30.288Z,2.66
2023-05-12T05:29:30.283Z,2.52
2023-05-12T05:30:30.253Z,2.37
2023-05-12T05:31:30.300Z,2.35
2023-05-12T05:32:30.262Z,2.32
2023-05-12T05:33:30.451Z,2.43
2023-05-12T05:34:30.322Z,2.44
2023-05-12T05:35:30.368Z,2.10
2023-05-12T05:36:31.594Z,1.87
2023-05-12T05:37:30.340Z,1.91
2023-05-12T05:38:30.357Z,1.55
2023-05-12T05:39:30.383Z,1.40
2023-05-12T05:40:41.286Z,1.34
2023-05-12T05:41:31.368Z,1.34
2023-05-12T05:42:30.341Z,1.16
2023-05-12T05:43:30.363Z,1.07
2023-05-12T05:44:30.355Z,1.02
2023-05-12T05:45:37.813Z,0.91
2023-05-12T05:46:30.369Z,1.03
2023-05-12T05:47:30.349Z,1.10
2023-05-12T05:48:30.328Z,1.37
2023-05-12T05:49:31.241Z,1.48
2023-05-12T05:50:30.317Z,1.72
2023-05-12T05:51:30.290Z,1.88
2023-05-12T05:52:30.260Z,2.00
2023-05-12T05:53:30.299Z,2.04
2023-05-12T05:54:30.297Z,2.15
2023-05-12T05:55:30.283Z,2.34
2023-05-12T05:56:30.297Z,2.62
2023-05-12T05:57:30.360Z,2.75
2023-05-12T05:58:30.310Z,2.94
2023-05-12T05:59:31.257Z,2.95
2023-05-12T06:00:30.278Z,3.00
2023-05-12T06:01:30.225Z,3.14
2023-05-12T06:02:30.376Z,3.44
2023-05-12T06:03:30.280Z,4.12
2023-05-12T06:04:30.258Z,4.54
2023-05-12T06:05:30.187Z,4.67
2023-05-12T06:06:30.153Z,5.05
2023-05-12T06:07:30.196Z,5.33
2023-05-12T06:08:30.185Z,5.41
2023-05-12T06:09:30.173Z,5.59
2023-05-12T06:10:30.160Z,5.98
2023-05-12T06:11:30.157Z,6.27
2023-05-12T06:12:30.188Z,6.78
2023-05-12T06:13:30.206Z,7.10
2023-05-12T06:14:30.238Z,7.39
2023-05-12T06:15:30.349Z,7.70
2023-05-12T06:16:30.345Z,7.76
2023-05-12T06:17:32.061Z,8.32
2023-05-12T06:18:30.402Z,8.62
2023-05-12T06:19:30.423Z,9.25
2023-05-12T06:20:30.825Z,9.41
2023-05-12T06:21:30.465Z,9.90
2023-05-12T06:22:30.467Z,11.03
2023-05-12T06:23:30.495Z,11.37
2023-05-12T06:24:30.545Z,11.74
2023-05-12T06:25:30.831Z,11.74
2023-05-12T06:26:31.232Z,12.31
2023-05-12T06:27:30.668Z,12.97
2023-05-12T06:28:30.637Z,13.44
2023-05-12T06:29:30.632Z,14.45
2023-05-12T06:30:30.666Z,15.12
2023-05-12T06:31:30.713Z,15.44
2023-05-12T06:32:30.744Z,15.99
2023-05-12T06:33:30.711Z,16.64
2023-05-12T06:34:30.760Z,16.78
2023-05-12T06:35:30.775Z,18.14
2023-05-12T06:36:30.781Z,19.01
2023-05-12T06:37:30.755Z,19.22
2023-05-12T06:38:30.820Z,17.93
2023-05-12T06:39:30.861Z,18.42
2023-05-12T06:40:31.312Z,17.81
2023-05-12T06:41:30.866Z,20.11
2023-05-12T06:42:30.881Z,20.47
2023-05-12T06:43:30.903Z,18.87
2023-05-12T06:44:30.894Z,18.36
2023-05-12T06:45:30.972Z,16.74
2023-05-12T06:46:31.038Z,13.71
2023-05-12T06:47:31.035Z,15.25
2023-05-12T06:48:31.038Z,15.76
2023-05-12T06:49:31.097Z,16.75
2023-05-12T06:50:31.134Z,17.88
2023-05-12T06:51:31.186Z,18.79
2023-05-12T06:52:31.225Z,16.10
2023-05-12T06:53:31.236Z,15.81
2023-05-12T06:54:31.289Z,14.45
2023-05-12T06:55:31.308Z,11.83
2023-05-12T06:56:31.357Z,9.72
2023-05-12T06:57:31.365Z,8.46
2023-05-12T06:58:31.402Z,6.39
2023-05-12T06:59:31.461Z,5.51
2023-05-12T07:00:31.378Z,4.54
2023-05-12T07:01:31.451Z,3.71
2023-05-12T07:02:31.413Z,3.26
2023-05-12T07:03:31.444Z,2.92
2023-05-12T07:04:31.420Z,2.72
2023-05-12T07:05:31.440Z,2.75
2023-05-12T07:06:31.393Z,2.57
2023-05-12T07:07:31.382Z,2.54
2023-05-12T07:08:31.410Z,2.51
2023-05-12T07:09:31.402Z,2.44
2023-05-12T07:10:31.451Z,2.22
2023-05-12T07:11:31.430Z,2.03
2023-05-12T07:12:31.437Z,1.96
2023-05-12T07:13:31.435Z,1.94
2023-05-12T07:14:31.482Z,1.76
2023-05-12T07:15:32.978Z,1.54
2023-05-12T07:16:31.577Z,1.87
2023-05-12T07:17:31.516Z,2.40
2023-05-12T07:18:32.072Z,2.77
2023-05-12T07:19:31.533Z,2.93
2023-05-12T07:20:31.541Z,3.03
2023-05-12T07:21:31.583Z,3.08
2023-05-12T07:22:31.586Z,3.41
2023-05-12T07:23:31.601Z,3.46
2023-05-12T07:24:31.590Z,3.39
2023-05-12T07:25:31.621Z,3.48
2023-05-12T07:26:31.606Z,3.27
2023-05-12T07:27:31.599Z,3.17
2023-05-12T07:28:31.609Z,2.93
2023-05-12T07:29:31.582Z,2.83
2023-05-12T07:30:31.616Z,2.91
2023-05-12T07:31:32.005Z,3.07
2023-05-12T07:32:31.638Z,3.40
2023-05-12T07:33:31.857Z,3.91
2023-05-12T07:34:31.646Z,4.26
2023-05-12T07:35:31.677Z,4.73
2023-05-12T07:36:31.668Z,4.73
2023-05-12T07:37:31.669Z,4.76
2023-05-12T07:38:31.692Z,5.10
2023-05-12T07:39:31.675Z,5.48
2023-05-12T07:40:31.690Z,5.85
2023-05-12T07:41:33.215Z,4.55
2023-05-12T07:42:31.725Z,4.12
2023-05-12T07:43:31.675Z,3.98
2023-05-12T07:44:31.654Z,4.42
2023-05-12T07:45:31.636Z,4.94
2023-05-12T07:46:31.678Z,5.44
2023-05-12T07:47:31.668Z,5.61
2023-05-12T07:48:31.629Z,5.45
2023-05-12T07:49:31.628Z,5.52
2023-05-12T07:50:31.631Z,6.11
2023-05-12T07:51:31.605Z,6.20
2023-05-12T07:52:32.353Z,6.24
2023-05-12T07:53:31.565Z,6.52
2023-05-12T07:54:31.611Z,6.94
2023-05-12T07:55:31.628Z,6.13
2023-05-12T07:56:31.580Z,4.64
2023-05-12T07:57:31.575Z,4.82
2023-05-12T07:58:31.532Z,5.18
2023-05-12T07:59:32.576Z,5.22
2023-05-12T08:00:31.605Z,5.36
2023-05-12T08:01:31.919Z,5.63
2023-05-12T08:02:31.601Z,6.09
2023-05-12T08:03:31.542Z,6.77
2023-05-12T08:04:31.701Z,6.88
2023-05-12T08:05:31.529Z,7.16
2023-05-12T08:06:31.868Z,7.30
2023-05-12T08:07:31.481Z,7.38
2023-05-12T08:08:31.494Z,7.35
2023-05-12T08:09:31.550Z,7.74
2023-05-12T08:10:31.587Z,8.00
2023-05-12T08:11:31.659Z,7.84
2023-05-12T08:12:31.721Z,7.86
2023-05-12T08:13:31.781Z,7.98
2023-05-12T08:14:31.819Z,8.00
2023-05-12T08:15:31.868Z,8.15
2023-05-12T08:16:32.426Z,8.23
2023-05-12T08:17:31.932Z,8.17
2023-05-12T08:18:31.973Z,8.21
2023-05-12T08:19:32.007Z,8.10
2023-05-12T08:20:32.033Z,8.23
2023-05-12T08:21:32.179Z,8.27
2023-05-12T08:22:32.078Z,8.11
2023-05-12T08:23:32.041Z,8.13
2023-05-12T08:24:32.072Z,7.96
2023-05-12T08:25:32.079Z,8.14
2023-05-12T08:26:32.084Z,8.24
2023-05-12T08:27:32.089Z,8.05
2023-05-12T08:28:32.109Z,8.16
2023-05-12T08:29:32.147Z,8.02
2023-05-12T08:30:32.154Z,8.09
2023-05-12T08:31:32.440Z,7.55
2023-05-12T08:32:32.204Z,7.38
2023-05-12T08:33:32.137Z,7.68
2023-05-12T08:34:32.139Z,7.68
2023-05-12T08:35:32.138Z,7.84
2023-05-12T08:36:32.123Z,7.87
2023-05-12T08:37:34.327Z,8.00
2023-05-12T08:38:32.142Z,8.01
2023-05-12T08:39:32.118Z,8.07
2023-05-12T08:40:32.087Z,8.15
2023-05-12T08:41:32.108Z,8.30
2023-05-12T08:42:32.100Z,8.19
2023-05-12T08:43:32.151Z,8.19
2023-05-12T08:44:32.066Z,8.24
2023-05-12T08:45:32.055Z,7.99
2023-05-12T08:46:32.066Z,8.12
2023-05-12T08:47:32.056Z,8.06
2023-05-12T08:48:32.043Z,7.96
2023-05-12T08:49:32.071Z,7.88
2023-05-12T08:50:32.036Z,7.77
2023-05-12T08:51:32.375Z,7.00
2023-05-12T08:52:32.020Z,6.59
2023-05-12T08:53:32.219Z,6.76
2023-05-12T08:54:32.547Z,6.80
2023-05-12T08:55:34.094Z,7.06
2023-05-12T08:57:32.021Z,6.72
2023-05-12T08:58:40.859Z,6.98
2023-05-12T08:59:33.094Z,7.00
2023-05-12T09:00:32.046Z,6.96
2023-05-12T09:01:32.004Z,5.16
2023-05-12T09:02:44.689Z,3.81
2023-05-12T09:03:32.984Z,3.18
2023-05-12T09:04:32.005Z,2.50
2023-05-12T09:05:31.958Z,2.41
2023-05-12T09:06:31.985Z,2.79
2023-05-12T09:07:31.940Z,2.80
2023-05-12T09:08:31.919Z,3.11
2023-05-12T09:09:32.038Z,2.69
2023-05-12T09:10:35.478Z,2.64
2023-05-12T09:11:31.914Z,2.42
2023-05-12T09:12:31.910Z,2.66
2023-05-12T09:13:31.906Z,2.66
2023-05-12T09:14:31.888Z,2.76
2023-05-12T09:15:31.910Z,3.21
2023-05-12T09:16:32.446Z,2.81
2023-05-12T09:17:31.909Z,2.96
2023-05-12T09:18:31.899Z,3.04
2023-05-12T09:19:31.891Z,2.84
2023-05-12T09:20:32.350Z,2.31
2023-05-12T09:21:33.100Z,2.32
2023-05-12T09:22:31.856Z,2.37
2023-05-12T09:23:31.822Z,2.43
2023-05-12T09:24:31.815Z,1.83
2023-05-12T09:25:31.839Z,1.85
2023-05-12T09:26:31.794Z,1.88
2023-05-12T09:27:31.820Z,1.99
2023-05-12T09:28:31.779Z,2.18
2023-05-12T09:29:33.500Z,2.25
2023-05-12T09:30:32.808Z,2.26
2023-05-12T09:31:31.849Z,2.29
2023-05-12T09:32:31.865Z,2.32
2023-05-12T09:33:31.750Z,2.35
2023-05-12T09:34:31.764Z,2.45
2023-05-12T09:35:31.941Z,2.46
2023-05-12T09:36:31.745Z,2.44
2023-05-12T09:37:31.758Z,2.48
2023-05-12T09:38:31.728Z,2.49
2023-05-12T09:39:31.733Z,1.78
2023-05-12T09:40:31.719Z,2.03
2023-05-12T09:41:31.783Z,1.91
2023-05-12T09:42:31.946Z,0.99
2023-05-12T09:43:31.742Z,0.63
2023-05-12T09:44:31.686Z,0.43
2023-05-12T09:45:31.675Z,0.34
2023-05-12T09:46:31.797Z,0.34
2023-05-12T09:47:31.996Z,0.42
2023-05-12T09:48:31.778Z,0.53
2023-05-12T09:49:31.817Z,0.62
2023-05-12T09:50:40.897Z,0.55
2023-05-12T09:51:32.822Z,0.55
2023-05-12T09:52:31.855Z,0.58
2023-05-12T09:53:31.865Z,0.65
2023-05-12T09:54:31.818Z,0.77
2023-05-12T09:55:31.876Z,1.19
2023-05-12T09:56:31.823Z,1.57
2023-05-12T09:57:31.839Z,1.65
2023-05-12T09:58:31.799Z,1.76
2023-05-12T09:59:31.797Z,2.04
2023-05-12T10:00:41.303Z,1.74
2023-05-12T10:01:32.804Z,0.89
2023-05-12T10:02:32.027Z,0.65
2023-05-12T10:03:31.761Z,0.57
2023-05-12T10:04:31.807Z,0.51
2023-05-12T10:05:31.777Z,0.48
2023-05-12T10:06:31.756Z,0.51
2023-05-12T10:07:31.756Z,0.62
2023-05-12T10:08:31.737Z,0.78
2023-05-12T10:09:31.768Z,0.95
2023-05-12T10:10:31.722Z,1.06
2023-05-12T10:11:31.706Z,1.23
2023-05-12T10:12:31.713Z,1.36
2023-05-12T10:13:31.679Z,1.39
2023-05-12T10:14:31.763Z,1.61
2023-05-12T10:15:31.673Z,2.17
2023-05-12T10:16:31.694Z,2.28
2023-05-12T10:17:31.778Z,2.06
2023-05-12T10:18:31.745Z,2.14
2023-05-12T10:19:31.726Z,2.01
2023-05-12T10:20:31.700Z,1.85
2023-05-12T10:21:31.751Z,2.04
2023-05-12T10:22:31.743Z,2.30
2023-05-12T10:23:31.766Z,2.53
2023-05-12T10:24:31.741Z,2.60
2023-05-12T10:25:31.813Z,2.18
2023-05-12T10:26:31.826Z,2.19
2023-05-12T10:27:31.906Z,2.31
2023-05-12T10:28:31.962Z,2.31
2023-05-12T10:29:31.950Z,2.28
2023-05-12T10:30:31.981Z,2.27
2023-05-12T10:31:31.970Z,2.27
2023-05-12T10:32:31.950Z,2.22
2023-05-12T10:33:31.977Z,2.39
2023-05-12T10:34:31.951Z,2.87
2023-05-12T10:35:31.951Z,3.81
2023-05-12T10:36:31.909Z,4.16
2023-05-12T10:37:32.434Z,4.73
2023-05-12T10:38:31.936Z,5.36
2023-05-12T10:39:31.968Z,5.66
2023-05-12T10:40:31.921Z,5.93
2023-05-12T10:41:31.919Z,6.35
2023-05-12T10:42:31.931Z,6.49
2023-05-12T10:43:31.941Z,6.52
2023-05-12T10:44:31.907Z,6.55
2023-05-12T10:45:31.984Z,6.54
2023-05-12T10:46:31.945Z,6.81
2023-05-12T10:47:32.009Z,7.03
2023-05-12T10:48:32.004Z,7.17
2023-05-12T10:49:32.012Z,7.43
2023-05-12T10:50:32.020Z,7.67
2023-05-12T10:51:31.969Z,7.88
2023-05-12T10:52:32.459Z,8.05
2023-05-12T10:53:45.205Z,8.13
2023-05-12T10:54:33.121Z,8.15
2023-05-12T10:55:32.162Z,8.19
2023-05-12T10:56:32.423Z,8.33
2023-05-12T10:57:32.426Z,8.58
2023-05-12T10:58:32.848Z,8.84
2023-05-12T10:59:32.248Z,8.83
2023-05-12T11:00:32.637Z,9.10
2023-05-12T11:01:32.432Z,9.03
2023-05-12T11:02:32.919Z,9.22
2023-05-12T11:03:33.331Z,9.16
2023-05-12T11:04:32.132Z,9.26
2023-05-12T11:05:32.304Z,9.24
2023-05-12T11:06:32.572Z,9.43
2023-05-12T11:07:32.926Z,9.38
2023-05-12T11:09:32.064Z,9.43
2023-05-12T11:10:33.435Z,9.40
2023-05-12T11:11:32.407Z,9.54
2023-05-12T11:12:32.067Z,9.61
2023-05-12T11:13:32.446Z,9.58
2023-05-12T11:14:32.073Z,9.29
2023-05-12T11:15:32.081Z,9.37
2023-05-12T11:16:32.079Z,9.29
2023-05-12T11:17:32.329Z,9.21
2023-05-12T11:18:32.126Z,9.24
2023-05-12T11:19:32.093Z,9.35
2023-05-12T11:20:32.094Z,9.38
2023-05-12T11:21:32.081Z,9.34
2023-05-12T11:22:32.928Z,9.22
2023-05-12T11:23:32.441Z,9.34
2023-05-12T11:24:32.103Z,9.24
2023-05-12T11:25:32.165Z,9.17
2023-05-12T11:26:32.173Z,9.02
2023-05-12T11:27:32.142Z,9.04
2023-05-12T11:28:32.466Z,8.84
2023-05-12T11:29:32.167Z,8.80
2023-05-12T11:30:32.172Z,8.63
2023-05-12T11:31:32.192Z,8.55
2023-05-12T11:32:32.293Z,8.64
2023-05-12T11:33:32.465Z,8.78
2023-05-12T11:34:32.356Z,8.67
2023-05-12T11:35:32.404Z,8.50
2023-05-12T11:36:32.434Z,8.48
2023-05-12T11:37:32.488Z,8.32
2023-05-12T11:38:32.962Z,8.51
2023-05-12T11:39:32.605Z,8.51
2023-05-12T11:40:32.640Z,8.48
2023-05-12T11:41:32.712Z,8.53
2023-05-12T11:42:32.766Z,8.48
2023-05-12T11:43:32.840Z,8.64
2023-05-12T11:44:32.885Z,8.53
2023-05-12T11:45:32.979Z,8.49
2023-05-12T11:46:32.960Z,8.50
2023-05-12T11:47:33.035Z,8.56
2023-05-12T11:48:33.055Z,8.51
2023-05-12T11:49:33.150Z,8.50
2023-05-12T11:50:33.156Z,8.36
2023-05-12T11:51:33.209Z,8.21
2023-05-12T11:52:33.267Z,8.27
2023-05-12T11:53:33.297Z,8.28
2023-05-12T11:54:33.356Z,8.57
2023-05-12T11:55:33.440Z,8.63
2023-05-12T11:56:33.458Z,8.78
2023-05-12T11:57:33.574Z,8.81
2023-05-12T11:58:35.566Z,8.71
2023-05-12T11:59:33.627Z,8.61
2023-05-12T12:00:33.699Z,8.70
2023-05-12T12:01:33.721Z,8.80
2023-05-12T12:02:33.900Z,8.64
2023-05-12T12:03:34.493Z,8.58
2023-05-12T12:04:33.988Z,8.90
2023-05-12T12:05:34.037Z,8.65
2023-05-12T12:06:33.983Z,8.69
2023-05-12T12:07:34.056Z,8.73
2023-05-12T12:08:34.120Z,8.71
2023-05-12T12:09:34.131Z,8.60
2023-05-12T12:10:34.158Z,8.49
2023-05-12T12:11:34.182Z,8.38
2023-05-12T12:12:34.184Z,8.51
2023-05-12T12:13:34.254Z,8.40
2023-05-12T12:14:34.166Z,8.12
2023-05-12T12:15:34.178Z,7.97
2023-05-12T12:16:34.261Z,7.77
2023-05-12T12:17:34.249Z,7.59
2023-05-12T12:18:34.232Z,7.48
2023-05-12T12:19:34.199Z,7.18
2023-05-12T12:20:34.227Z,7.13
2023-05-12T12:21:34.350Z,6.83
2023-05-12T12:22:34.599Z,6.80
2023-05-12T12:23:47.381Z,6.82
2023-05-12T12:24:35.406Z,6.83
2023-05-12T12:25:34.406Z,6.88
2023-05-12T12:26:34.345Z,6.91
2023-05-12T12:27:34.360Z,6.93
2023-05-12T12:28:34.372Z,6.93
2023-05-12T12:29:34.372Z,6.92
2023-05-12T12:30:34.362Z,7.15
2023-05-12T12:31:34.379Z,7.14
2023-05-12T12:32:34.383Z,6.96
2023-05-12T12:33:34.325Z,7.14
2023-05-12T12:34:34.312Z,7.08
2023-05-12T12:35:34.280Z,7.05
2023-05-12T12:36:34.333Z,6.97
2023-05-12T12:37:34.336Z,6.97
2023-05-12T12:38:34.331Z,6.98
2023-05-12T12:39:34.387Z,6.96
2023-05-12T12:40:34.431Z,6.86
2023-05-12T12:41:34.479Z,6.87
2023-05-12T12:42:34.505Z,7.07
2023-05-12T12:43:34.574Z,6.94
2023-05-12T12:44:34.648Z,6.95
2023-05-12T12:45:34.690Z,6.98
2023-05-12T12:46:34.756Z,6.94
2023-05-12T12:47:34.798Z,6.69
2023-05-12T12:48:34.856Z,6.52
2023-05-12T12:49:34.883Z,6.60
2023-05-12T12:50:34.973Z,6.46
2023-05-12T12:51:45.138Z,6.59
2023-05-12T12:52:35.997Z,6.60
2023-05-12T12:53:34.993Z,6.60
2023-05-12T12:54:34.989Z,6.66
2023-05-12T12:55:35.006Z,6.71
2023-05-12T12:56:35.000Z,6.71
2023-05-12T12:57:34.951Z,6.70
2023-05-12T12:58:34.965Z,6.73
2023-05-12T12:59:34.952Z,6.64
2023-05-12T13:00:34.987Z,6.50
2023-05-12T13:01:35.170Z,6.56
2023-05-12T13:02:35.022Z,6.50
2023-05-12T13:03:35.008Z,6.93
2023-05-12T13:04:35.068Z,12.94
2023-05-12T13:05:35.119Z,21.54
2023-05-12T13:06:35.141Z,25.63
2023-05-12T13:07:35.214Z,28.99
2023-05-12T13:08:35.247Z,25.03
2023-05-12T13:09:35.255Z,17.26
2023-05-12T13:10:35.266Z,25.02
2023-05-12T13:11:35.274Z,18.75
2023-05-12T13:12:35.390Z,15.66
2023-05-12T13:13:35.337Z,13.40
2023-05-12T13:14:35.356Z,12.14
2023-05-12T13:15:35.324Z,12.48
2023-05-12T13:16:35.464Z,12.94
2023-05-12T13:17:35.469Z,13.48
2023-05-12T13:18:35.583Z,13.86
2023-05-12T13:19:37.820Z,14.57